Time;durP1;ratioP1;P1;durP2;ratioP2;P2;SDS_P1;SDS_P2;PMS_P1;PMS_P2;Temp;Humidity;BMP_temperature;BMP_pressure;BME280_temperature;BME280_humidity;BME280_pressure;Samples;Min_cycle;Max_cycle;Signal;HPM_P1;HPM_P2
2020/12/30 00:00:55;;;;;;;11.73;9.53;;;;;;;2.25;81.61;98330.84;5119047;28;20470;-65
2020/12/30 00:03:21;;;;;;;12.70;9.47;;;;;;;2.20;82.03;98340.94;5121330;28;20832;-65
2020/12/30 00:05:47;;;;;;;13.50;9.40;;;;;;;2.15;82.08;98340.53;5119461;27;20477;-65
2020/12/30 00:08:14;;;;;;;14.93;9.60;;;;;;;2.09;82.52;98340.25;5121220;28;20517;-65
2020/12/30 00:10:40;;;;;;;17.27;10.33;;;;;;;2.11;82.59;98339.13;5119760;28;20469;-65
2020/12/30 00:13:07;;;;;;;15.93;10.13;;;;;;;2.12;82.45;98342.59;5120993;28;20454;-64
2020/12/30 00:15:33;;;;;;;11.20;8.77;;;;;;;2.20;82.04;98342.75;5096666;28;20475;-65
2020/12/30 00:18:00;;;;;;;15.40;10.73;;;;;;;2.13;82.07;98345.09;5100727;28;20452;-65
2020/12/30 00:20:26;;;;;;;17.33;11.10;;;;;;;2.13;82.36;98336.38;5106412;28;20485;-65
2020/12/30 00:22:52;;;;;;;11.77;10.00;;;;;;;2.18;81.94;98336.78;5119957;28;20433;-64
2020/12/30 00:25:18;;;;;;;18.50;11.00;;;;;;;2.18;81.86;98336.78;5113642;28;20442;-65
2020/12/30 00:27:45;;;;;;;14.07;10.30;;;;;;;2.12;82.04;98343.44;5120706;28;20470;-65
2020/12/30 00:30:13;;;;;;;13.47;10.23;;;;;;;2.17;81.63;98335.13;5107972;28;20503;-65
2020/12/30 00:32:40;;;;;;;14.33;10.80;;;;;;;2.09;81.84;98341.06;5099756;28;20451;-65
2020/12/30 00:35:06;;;;;;;15.13;9.10;;;;;;;2.16;81.86;98346.66;5107164;28;20446;-65
2020/12/30 00:37:32;;;;;;;14.90;9.93;;;;;;;2.10;81.96;98340.13;5123442;28;20426;-65
2020/12/30 00:39:58;;;;;;;12.77;9.67;;;;;;;2.08;82.22;98344.66;5123725;28;20505;-65
2020/12/30 00:42:29;;;;;;;16.10;9.37;;;;;;;2.09;82.00;98350.78;5123241;28;20474;-65
2020/12/30 00:44:55;;;;;;;14.17;10.70;;;;;;;2.06;82.24;98341.34;5120234;28;20511;-64
2020/12/30 00:47:22;;;;;;;16.20;11.47;;;;;;;2.04;82.24;98349.38;5122641;28;20485;-65
2020/12/30 00:49:48;;;;;;;17.27;12.00;;;;;;;1.95;82.39;98344.09;5122089;28;20478;-65
2020/12/30 00:52:14;;;;;;;17.87;12.50;;;;;;;2.00;82.27;98352.44;5122461;28;20501;-65
2020/12/30 00:54:40;;;;;;;18.80;12.23;;;;;;;1.96;82.46;98351.88;5124268;28;20449;-65
2020/12/30 00:57:06;;;;;;;15.90;10.77;;;;;;;1.98;82.37;98349.06;5123087;28;20461;-64
2020/12/30 00:59:32;;;;;;;18.60;11.47;;;;;;;1.93;82.46;98364.44;5122877;28;20454;-65
2020/12/30 01:01:59;;;;;;;19.13;12.40;;;;;;;1.90;82.60;98360.28;5122167;28;20485;-65
2020/12/30 01:04:26;;;;;;;17.73;10.90;;;;;;;1.91;82.51;98359.31;5124056;28;20493;-65
2020/12/30 01:06:53;;;;;;;13.10;10.00;;;;;;;1.93;82.26;98365.28;5106290;28;20474;-65
2020/12/30 01:09:19;;;;;;;14.63;9.87;;;;;;;1.90;82.39;98376.09;5124444;28;20438;-65
2020/12/30 01:11:46;;;;;;;18.57;10.80;;;;;;;1.98;81.90;98378.06;5122237;28;20462;-65
2020/12/30 01:14:12;;;;;;;12.27;10.23;;;;;;;1.97;82.08;98376.41;5122484;28;20476;-65
2020/12/30 01:16:38;;;;;;;11.50;9.40;;;;;;;2.02;81.82;98375.03;5114519;28;20474;-65
2020/12/30 01:19:04;;;;;;;13.00;10.40;;;;;;;2.02;81.29;98377.66;5123852;28;20439;-65
2020/12/30 01:21:31;;;;;;;12.87;9.70;;;;;;;2.05;81.68;98371.31;5112647;28;20956;-65
2020/12/30 01:23:58;;;;;;;13.03;9.73;;;;;;;2.05;81.72;98384.50;5122892;28;20993;-65
2020/12/30 01:26:24;;;;;;;12.53;8.93;;;;;;;2.00;81.36;98376.16;5121049;28;20502;-65
2020/12/30 01:28:50;;;;;;;14.70;10.80;;;;;;;1.97;81.62;98382.50;5122559;28;20446;-65
2020/12/30 01:31:16;;;;;;;14.37;9.63;;;;;;;1.92;81.87;98379.44;5117717;28;20509;-65
2020/12/30 01:33:43;;;;;;;10.53;7.70;;;;;;;1.92;81.29;98387.34;5122738;28;20442;-65
2020/12/30 01:36:12;;;;;;;12.17;8.90;;;;;;;1.91;81.42;98380.41;5121642;28;20490;-65
2020/12/30 01:38:39;;;;;;;13.73;9.73;;;;;;;1.81;81.84;98398.78;5124520;28;20473;-65
2020/12/30 01:41:05;;;;;;;13.53;9.80;;;;;;;1.87;81.89;98395.66;5120838;28;20843;-65
2020/12/30 01:43:31;;;;;;;12.77;9.10;;;;;;;1.75;82.15;98380.84;5123871;28;20481;-65
2020/12/30 01:45:57;;;;;;;10.80;8.50;;;;;;;1.86;82.21;98398.41;5122402;28;20933;-65
2020/12/30 01:48:24;;;;;;;13.50;9.73;;;;;;;1.81;82.14;98404.06;5117834;28;20513;-65
2020/12/30 01:50:50;;;;;;;13.17;9.60;;;;;;;1.83;81.39;98391.59;5122229;28;20470;-64
2020/12/30 01:53:17;;;;;;;11.60;8.47;;;;;;;1.82;81.62;98399.63;5118720;28;20450;-65
2020/12/30 01:55:44;;;;;;;12.57;9.07;;;;;;;1.75;81.83;98396.66;5122695;28;20459;-64
2020/12/30 01:58:11;;;;;;;14.00;8.93;;;;;;;1.73;82.14;98409.16;5123378;28;20498;-65
2020/12/30 02:00:40;;;;;;;13.60;9.00;;;;;;;1.73;81.89;98416.22;5121939;28;20477;-65
2020/12/30 02:03:08;;;;;;;14.30;8.87;;;;;;;1.81;81.87;98417.25;5118968;28;20477;-65
2020/12/30 02:05:36;;;;;;;14.47;9.47;;;;;;;1.85;81.69;98416.00;5121533;28;20485;-65
2020/12/30 02:08:02;;;;;;;11.67;9.40;;;;;;;1.84;81.63;98414.34;5114077;28;20843;-65
2020/12/30 02:10:29;;;;;;;13.60;8.73;;;;;;;1.81;82.03;98416.41;5122019;28;20500;-65
2020/12/30 02:12:56;;;;;;;14.60;9.37;;;;;;;1.74;81.86;98418.72;5120461;28;20438;-65
2020/12/30 02:15:24;;;;;;;12.03;9.00;;;;;;;1.80;81.51;98428.72;5121949;28;20477;-65
2020/12/30 02:17:50;;;;;;;12.40;8.57;;;;;;;1.77;81.56;98431.66;5122864;28;20518;-65
2020/12/30 02:20:17;;;;;;;13.00;9.30;;;;;;;1.69;81.76;98432.28;5121340;28;20507;-64
2020/12/30 02:22:44;;;;;;;10.70;9.33;;;;;;;1.69;81.79;98437.53;5122336;28;20441;-64
2020/12/30 02:25:11;;;;;;;12.60;8.60;;;;;;;1.65;82.17;98433.50;5121504;28;20454;-65
2020/12/30 02:27:37;;;;;;;12.73;9.47;;;;;;;1.64;82.10;98437.09;5122856;28;20477;-65
2020/12/30 02:30:03;;;;;;;17.50;8.90;;;;;;;1.66;81.63;98436.97;5115643;28;20481;-65
2020/12/30 02:32:30;;;;;;;10.43;8.00;;;;;;;1.65;81.79;98436.16;5121526;28;20466;-64
2020/12/30 02:34:56;;;;;;;11.77;8.63;;;;;;;1.62;81.77;98432.94;5122384;28;20530;-65
2020/12/30 02:37:22;;;;;;;11.50;8.33;;;;;;;1.60;81.75;98443.59;5120115;28;20509;-65
2020/12/30 02:39:48;;;;;;;12.60;8.30;;;;;;;1.56;81.71;98442.16;5122666;28;20497;-65
2020/12/30 02:42:15;;;;;;;11.33;8.70;;;;;;;1.56;81.85;98442.16;5115044;27;20533;-65
2020/12/30 02:44:42;;;;;;;15.33;9.13;;;;;;;1.50;82.12;98445.31;5122664;28;20468;-64
2020/12/30 02:47:08;;;;;;;8.80;7.53;;;;;;;1.47;81.93;98446.41;5119201;28;20482;-65
2020/12/30 02:49:34;;;;;;;10.90;8.13;;;;;;;1.52;82.01;98451.28;5122463;28;20478;-65
2020/12/30 02:52:00;;;;;;;13.20;8.90;;;;;;;1.42;81.98;98448.56;5115908;28;20512;-65
2020/12/30 02:54:26;;;;;;;12.20;8.60;;;;;;;1.42;82.19;98453.00;5123013;28;20452;-65
2020/12/30 02:56:52;;;;;;;8.90;7.13;;;;;;;1.41;82.46;98454.81;5121079;28;20470;-65
2020/12/30 02:59:19;;;;;;;12.90;8.20;;;;;;;1.37;82.57;98461.31;5122245;28;20462;-64
2020/12/30 03:01:45;;;;;;;8.97;7.80;;;;;;;1.33;82.19;98453.78;5118121;28;21031;-65
2020/12/30 03:04:12;;;;;;;13.07;8.80;;;;;;;1.28;82.48;98447.06;5122013;28;20486;-65
2020/12/30 03:06:38;;;;;;;10.07;7.33;;;;;;;1.23;83.06;98461.59;5117238;28;20524;-65
2020/12/30 03:09:04;;;;;;;9.40;8.40;;;;;;;1.19;82.85;98461.00;5122554;28;20445;-64
2020/12/30 03:11:30;;;;;;;9.70;7.40;;;;;;;1.14;83.18;98460.53;5120502;28;20474;-64
2020/12/30 03:13:56;;;;;;;9.70;7.37;;;;;;;1.09;83.24;98457.44;5120272;28;20461;-65
2020/12/30 03:16:23;;;;;;;9.63;7.40;;;;;;;1.05;83.70;98463.94;5106812;28;20790;-64
2020/12/30 03:18:49;;;;;;;14.47;7.87;;;;;;;0.97;83.46;98467.16;5101976;28;20415;-65
2020/12/30 03:21:16;;;;;;;12.00;7.60;;;;;;;0.89;84.04;98472.22;5099590;28;20503;-65
2020/12/30 03:23:42;;;;;;;9.53;7.53;;;;;;;0.82;84.12;98473.69;5101205;28;20451;-65
2020/12/30 03:26:08;;;;;;;10.60;7.53;;;;;;;0.74;84.63;98469.84;5100317;28;20479;-64
2020/12/30 03:28:34;;;;;;;11.73;7.83;;;;;;;0.69;84.70;98476.44;5101985;28;20495;-65
2020/12/30 03:31:00;;;;;;;9.40;8.33;;;;;;;0.68;84.91;98470.34;5099904;28;20475;-64
2020/12/30 03:33:27;;;;;;;11.33;9.23;;;;;;;0.67;84.92;98476.56;5101608;28;20450;-65
2020/12/30 03:35:53;;;;;;;12.43;8.07;;;;;;;0.67;84.98;98481.00;5100023;28;20498;-65
2020/12/30 03:38:19;;;;;;;10.97;8.10;;;;;;;0.61;84.99;98484.09;5102045;28;20442;-65
2020/12/30 03:40:46;;;;;;;9.60;7.93;;;;;;;0.58;85.11;98473.84;5099883;28;20482;-64
2020/12/30 03:43:12;;;;;;;10.30;7.37;;;;;;;0.50;85.64;98479.69;5101181;28;20454;-65
2020/12/30 03:45:38;;;;;;;9.73;8.63;;;;;;;0.52;85.38;98480.41;5100015;28;20899;-65
2020/12/30 03:48:04;;;;;;;11.20;8.77;;;;;;;0.49;85.53;98485.91;5100518;28;20507;-64
2020/12/30 03:50:31;;;;;;;11.30;8.90;;;;;;;0.49;85.57;98481.47;5099714;28;20482;-64
2020/12/30 03:52:57;;;;;;;10.43;7.90;;;;;;;0.46;85.82;98467.75;5101514;28;20884;-65
2020/12/30 03:55:23;;;;;;;13.30;8.90;;;;;;;0.44;85.85;98469.66;5099067;28;20451;-65
2020/12/30 03:57:49;;;;;;;9.63;7.27;;;;;;;0.42;85.91;98474.19;5101928;28;20416;-65
2020/12/30 04:00:16;;;;;;;15.83;8.93;;;;;;;0.43;85.72;98470.59;5099467;28;20454;-64
2020/12/30 04:02:42;;;;;;;12.63;8.53;;;;;;;0.46;85.87;98475.63;5100929;28;20483;-64
2020/12/30 04:05:08;;;;;;;14.90;9.47;;;;;;;0.44;85.91;98475.75;5099257;28;20462;-65
2020/12/30 04:07:35;;;;;;;11.23;9.20;;;;;;;0.46;85.82;98473.00;5101325;28;20507;-64
2020/12/30 04:10:01;;;;;;;10.40;8.63;;;;;;;0.41;86.03;98470.72;5100998;28;20454;-65
2020/12/30 04:12:27;;;;;;;13.37;9.80;;;;;;;0.42;85.97;98463.66;5103044;28;20477;-64
2020/12/30 04:14:53;;;;;;;14.20;9.53;;;;;;;0.41;85.94;98469.91;5104838;28;20485;-65
2020/12/30 04:17:19;;;;;;;12.20;9.20;;;;;;;0.44;85.96;98472.28;5123900;28;20508;-64
2020/12/30 04:19:46;;;;;;;9.50;7.57;;;;;;;0.49;85.71;98478.03;5125235;28;20446;-64
2020/12/30 04:22:12;;;;;;;13.27;9.00;;;;;;;0.43;86.17;98471.44;5124619;28;20501;-65
2020/12/30 04:24:39;;;;;;;11.07;9.10;;;;;;;0.43;86.13;98481.13;5125311;28;20446;-65
2020/12/30 04:27:05;;;;;;;12.10;8.40;;;;;;;0.46;85.97;98484.34;5124520;28;20477;-64
2020/12/30 04:29:31;;;;;;;13.50;9.90;;;;;;;0.33;86.28;98491.50;5124679;28;20446;-64
2020/12/30 04:31:57;;;;;;;12.23;9.70;;;;;;;0.39;86.20;98490.22;5124009;28;20513;-65
2020/12/30 04:34:23;;;;;;;11.43;9.37;;;;;;;0.27;86.57;98477.06;5124612;28;20470;-65
2020/12/30 04:36:49;;;;;;;14.60;9.77;;;;;;;0.30;86.74;98484.72;5123633;28;20504;-65
2020/12/30 04:39:16;;;;;;;12.83;9.20;;;;;;;0.31;86.73;98491.66;5124876;28;20550;-65
2020/12/30 04:41:44;;;;;;;11.00;8.87;;;;;;;0.30;86.66;98484.72;5123402;28;20477;-65
2020/12/30 04:44:13;;;;;;;13.67;8.70;;;;;;;0.30;86.75;98495.22;5124740;28;20536;-65
2020/12/30 04:46:40;;;;;;;15.00;9.10;;;;;;;0.28;86.94;98488.41;5123336;28;20469;-65
2020/12/30 04:49:06;;;;;;;12.40;9.63;;;;;;;0.25;87.07;98486.84;5124542;28;21979;-65
2020/12/30 04:51:34;;;;;;;14.70;10.83;;;;;;;0.21;87.18;98497.72;5123440;28;20470;-65
2020/12/30 04:54:00;;;;;;;12.93;9.00;;;;;;;0.26;87.34;98499.06;5124796;28;20506;-65
2020/12/30 04:56:38;;;;;;;18.70;10.90;;;;;;;0.15;87.54;98494.59;5123351;28;20476;-65
2020/12/30 04:59:06;;;;;;;11.90;8.67;;;;;;;0.31;87.47;98496.91;5123872;28;20450;-64
2020/12/30 05:01:33;;;;;;;12.50;9.47;;;;;;;0.34;87.35;98493.19;5122902;28;20528;-65
2020/12/30 05:04:02;;;;;;;15.07;9.33;;;;;;;0.37;87.26;98496.41;5124713;28;20452;-65
2020/12/30 05:06:29;;;;;;;14.50;10.53;;;;;;;0.39;87.17;98498.94;5122762;27;20508;-65
2020/12/30 05:08:56;;;;;;;16.40;10.23;;;;;;;0.32;87.25;98501.19;5124362;28;20494;-65
2020/12/30 05:11:22;;;;;;;12.80;9.50;;;;;;;0.27;87.37;98497.25;5123145;28;20489;-64
2020/12/30 05:13:48;;;;;;;12.40;10.07;;;;;;;0.21;87.44;98497.72;5123896;28;20510;-64
2020/12/30 05:16:15;;;;;;;13.40;9.47;;;;;;;0.11;87.98;98502.88;5121739;28;20476;-65
2020/12/30 05:18:41;;;;;;;12.97;8.73;;;;;;;0.13;87.69;98508.84;5123032;28;20920;-65
2020/12/30 05:21:08;;;;;;;12.60;9.03;;;;;;;0.12;87.76;98504.53;5121545;28;20612;-65
2020/12/30 05:23:34;;;;;;;14.17;10.50;;;;;;;0.03;88.15;98510.47;5123196;28;20480;-65
2020/12/30 05:26:01;;;;;;;11.63;8.90;;;;;;;0.07;88.13;98510.16;5121583;28;20470;-64
2020/12/30 05:28:29;;;;;;;11.97;9.30;;;;;;;-0.02;88.13;98519.56;5122985;28;20498;-65
2020/12/30 05:30:55;;;;;;;10.97;8.63;;;;;;;-0.06;88.60;98519.91;5120986;28;20502;-65
2020/12/30 05:33:22;;;;;;;14.30;10.20;;;;;;;-0.08;88.71;98520.00;5122519;28;20470;-65
2020/12/30 05:35:48;;;;;;;13.80;9.10;;;;;;;0.01;88.71;98522.91;5121123;28;20462;-64
2020/12/30 05:38:14;;;;;;;14.43;10.23;;;;;;;-0.05;88.74;98516.34;5122795;28;20953;-65
2020/12/30 05:40:40;;;;;;;13.83;10.40;;;;;;;0.02;88.68;98525.41;5121225;28;20496;-64
2020/12/30 05:43:10;;;;;;;15.73;9.87;;;;;;;0.01;88.70;98528.16;5122913;28;20425;-65
2020/12/30 05:45:44;;;;;;;16.97;11.80;;;;;;;0.10;88.73;98536.16;5120727;28;20458;-65
2020/12/30 05:48:11;;;;;;;16.40;10.60;;;;;;;0.08;89.16;98529.38;5121966;28;20490;-66
2020/12/30 05:50:46;;;;;;;16.63;10.97;;;;;;;0.18;88.79;98532.97;5120393;28;20493;-65
2020/12/30 05:53:14;;;;;;;13.50;10.90;;;;;;;0.22;88.63;98539.66;5123082;28;20430;-65
2020/12/30 05:55:40;;;;;;;13.00;9.87;;;;;;;0.19;88.84;98542.50;5121098;28;20462;-64
2020/12/30 05:58:07;;;;;;;13.43;10.20;;;;;;;0.31;88.68;98538.09;5122754;28;20450;-65
2020/12/30 06:00:33;;;;;;;18.93;11.80;;;;;;;0.32;88.45;98535.38;5121282;28;20504;-65
2020/12/30 06:02:59;;;;;;;16.50;11.27;;;;;;;0.33;88.44;98544.94;5121987;28;21091;-65
2020/12/30 06:05:25;;;;;;;18.53;11.37;;;;;;;0.35;88.27;98542.19;5120776;28;20499;-65
2020/12/30 06:07:53;;;;;;;20.73;12.40;;;;;;;0.22;88.66;98546.72;5121679;28;20521;-65
2020/12/30 06:10:20;;;;;;;17.10;11.60;;;;;;;0.22;88.86;98546.72;5120566;28;20450;-65
2020/12/30 06:12:51;;;;;;;15.83;11.73;;;;;;;0.29;88.92;98547.91;5122286;28;20426;-64
2020/12/30 06:15:19;;;;;;;18.47;11.37;;;;;;;0.27;88.71;98558.53;5096292;28;683834;-65
2020/12/30 06:17:54;;;;;;;13.13;10.23;;;;;;;0.23;89.04;98556.28;5110329;28;20205;-65
2020/12/30 06:20:22;;;;;;;16.90;11.70;;;;;;;0.21;89.11;98559.03;5102450;28;20479;-65
2020/12/30 06:22:57;;;;;;;17.90;11.70;;;;;;;0.23;89.12;98558.91;5117323;28;20469;-65
2020/12/30 06:25:26;;;;;;;19.40;13.10;;;;;;;0.18;89.27;98561.88;5100849;28;20447;-65
2020/12/30 06:27:53;;;;;;;24.10;13.47;;;;;;;0.20;89.29;98559.97;5115138;28;20534;-64
2020/12/30 06:30:20;;;;;;;18.50;12.30;;;;;;;0.16;89.77;98553.28;5117084;28;20450;-64
2020/12/30 06:32:46;;;;;;;18.53;13.03;;;;;;;0.22;89.24;98555.41;5110811;28;20459;-64
2020/12/30 06:35:12;;;;;;;18.43;12.37;;;;;;;0.29;89.52;98559.25;5099652;28;20459;-65
2020/12/30 06:37:41;;;;;;;18.27;12.07;;;;;;;0.28;89.48;98570.75;5103187;28;20462;-65
2020/12/30 06:40:28;;;;;;;18.33;12.17;;;;;;;0.26;89.24;98566.53;5100806;28;20459;-64
2020/12/30 06:42:56;;;;;;;18.90;12.93;;;;;;;0.26;89.36;98567.41;5082059;28;20957;-65
2020/12/30 06:45:50;;;;;;;20.67;12.77;;;;;;;0.31;89.29;98577.53;5080724;28;20459;-64
2020/12/30 06:48:20;;;;;;;23.83;14.30;;;;;;;0.24;89.47;98585.03;5102404;28;20558;-65
2020/12/30 06:50:46;;;;;;;24.43;13.83;;;;;;;0.28;89.58;98583.03;5108360;28;20989;-66
2020/12/30 06:53:25;;;;;;;22.57;15.33;;;;;;;0.30;89.73;98589.84;5122098;28;20461;-65
2020/12/30 06:55:53;;;;;;;24.90;14.90;;;;;;;0.25;89.79;98602.50;5112158;28;21245;-65
2020/12/30 06:58:50;;;;;;;19.47;13.27;;;;;;;0.35;89.23;98607.91;5105459;28;20480;-65
2020/12/30 07:01:18;;;;;;;23.97;14.83;;;;;;;0.32;89.53;98622.13;5102700;28;20471;-65
2020/12/30 07:03:45;;;;;;;19.43;13.33;;;;;;;0.36;89.72;98617.47;5118828;28;20456;-65
2020/12/30 07:06:28;;;;;;;21.67;14.17;;;;;;;0.38;89.67;98618.16;5101293;28;20509;-65
2020/12/30 07:08:56;;;;;;;21.07;13.00;;;;;;;0.39;89.48;98625.13;5107780;28;20513;-65
2020/12/30 07:11:43;;;;;;;18.10;13.00;;;;;;;0.35;89.45;98626.31;5112545;28;20505;-65
2020/12/30 07:14:10;;;;;;;21.87;13.33;;;;;;;0.31;89.61;98630.09;5102084;28;20477;-65
2020/12/30 07:16:37;;;;;;;19.10;12.40;;;;;;;0.35;89.86;98637.66;5109622;28;20467;-64
2020/12/30 07:19:09;;;;;;;17.60;12.27;;;;;;;0.35;89.76;98637.66;5119513;28;20457;-64
2020/12/30 07:21:54;;;;;;;19.20;11.87;;;;;;;0.46;89.18;98636.84;5115824;28;20477;-65
2020/12/30 07:24:21;;;;;;;19.33;12.10;;;;;;;0.50;89.16;98634.81;5119303;28;20478;-64
2020/12/30 07:26:50;;;;;;;18.13;12.63;;;;;;;0.48;88.89;98642.00;5112488;28;20502;-64
2020/12/30 07:29:16;;;;;;;21.60;14.30;;;;;;;0.56;88.71;98637.00;5111883;28;20561;-65
2020/12/30 07:31:47;;;;;;;18.60;13.40;;;;;;;0.58;88.89;98650.84;5118235;28;20516;-65
2020/12/30 07:34:15;;;;;;;22.10;13.37;;;;;;;0.66;88.12;98653.75;5119950;28;20454;-65
2020/12/30 07:36:42;;;;;;;22.60;13.90;;;;;;;0.59;88.52;98649.91;5117630;28;20467;-65
2020/12/30 07:39:09;;;;;;;22.30;13.97;;;;;;;0.67;88.19;98652.78;5121966;28;20858;-65
2020/12/30 07:41:36;;;;;;;19.87;12.60;;;;;;;0.68;87.99;98658.88;5119753;28;20474;-65
2020/12/30 07:44:04;;;;;;;20.40;13.57;;;;;;;0.71;88.01;98648.13;5121932;28;20484;-65
2020/12/30 07:46:31;;;;;;;20.23;13.07;;;;;;;0.76;88.04;98656.50;5111411;28;20485;-64
2020/12/30 07:49:07;;;;;;;18.63;13.47;;;;;;;0.82;87.61;98655.19;5122529;28;20493;-65
2020/12/30 07:51:33;;;;;;;23.63;13.30;;;;;;;0.86;87.48;98654.00;5097746;28;20478;-65
2020/12/30 07:53:59;;;;;;;18.70;12.00;;;;;;;0.86;87.59;98652.19;5096590;28;20928;-65
2020/12/30 08:05:34;;;;;;;21.97;14.03;;;;;;;1.03;86.39;98685.09;5051609;28;20488;-70
2020/12/30 08:08:07;;;;;;;19.33;14.23;;;;;;;1.11;86.06;98681.88;5057502;28;20541;-71
2020/12/30 08:10:33;;;;;;;19.00;12.80;;;;;;;1.14;86.08;98684.28;5059684;28;20860;-73
2020/12/30 08:13:07;;;;;;;20.00;13.10;;;;;;;1.09;86.24;98682.00;5060810;28;20504;-73
2020/12/30 08:15:33;;;;;;;19.10;12.83;;;;;;;1.10;85.90;98677.56;5059917;28;20928;-74
2020/12/30 08:18:00;;;;;;;18.67;13.60;;;;;;;1.11;86.18;98684.50;5061362;28;20451;-73
2020/12/30 08:20:26;;;;;;;18.43;14.87;;;;;;;1.08;86.03;98674.25;5057778;28;20461;-72
2020/12/30 08:22:57;;;;;;;22.47;13.03;;;;;;;1.11;86.39;98681.88;5060945;28;20479;-73
2020/12/30 08:25:23;;;;;;;20.13;12.47;;;;;;;1.20;85.93;98690.84;5058525;28;20999;-71
2020/12/30 08:27:50;;;;;;;18.90;13.00;;;;;;;1.22;85.95;98683.69;5060202;28;20499;-71
2020/12/30 08:30:16;;;;;;;18.13;12.57;;;;;;;1.33;85.73;98696.00;5059670;28;20500;-70
2020/12/30 08:32:50;;;;;;;18.57;12.93;;;;;;;1.21;85.87;98689.91;5060926;28;20448;-71
2020/12/30 08:35:18;;;;;;;19.77;13.93;;;;;;;1.28;85.71;98689.28;5056955;28;20460;-72
2020/12/30 08:37:46;;;;;;;19.67;12.90;;;;;;;1.31;85.43;98689.06;5061035;28;20437;-71
2020/12/30 08:40:17;;;;;;;17.70;13.30;;;;;;;1.36;85.60;98685.25;5060275;28;20456;-71
2020/12/30 08:43:12;;;;;;;26.70;14.50;;;;;;;1.42;85.18;98692.63;5061907;28;20484;-71
2020/12/30 08:45:44;;;;;;;19.87;13.70;;;;;;;1.45;85.43;98681.88;5059048;28;20472;-71
2020/12/30 08:48:13;;;;;;;23.63;14.37;;;;;;;1.54;85.18;98691.66;5061423;28;20465;-71
2020/12/30 08:50:39;;;;;;;19.83;14.73;;;;;;;1.62;84.47;98689.28;5052832;28;20492;-71
2020/12/30 08:53:06;;;;;;;22.97;14.70;;;;;;;1.64;84.37;98700.50;5060904;28;20483;-71
2020/12/30 08:55:33;;;;;;;24.63;14.77;;;;;;;1.86;83.84;98704.09;5055683;28;20484;-69
2020/12/30 08:57:59;;;;;;;21.70;15.03;;;;;;;1.86;83.56;98710.19;5061794;28;20495;-69
2020/12/30 09:00:27;;;;;;;22.80;15.97;;;;;;;1.96;83.21;98715.56;5062499;28;20501;-73
2020/12/30 09:02:54;;;;;;;19.20;13.50;;;;;;;1.91;83.20;98717.72;5064329;28;20524;-72
2020/12/30 09:05:27;;;;;;;17.77;12.70;;;;;;;1.94;83.13;98727.16;5061313;28;20507;-72
2020/12/30 09:07:53;;;;;;;19.60;12.20;;;;;;;1.97;82.81;98722.50;5064468;28;20483;-73
2020/12/30 09:10:19;;;;;;;19.57;12.83;;;;;;;1.86;83.31;98730.44;5062282;28;20536;-73
2020/12/30 09:12:48;;;;;;;22.50;14.47;;;;;;;1.91;83.71;98735.31;5064109;28;20441;-72
2020/12/30 09:15:15;;;;;;;20.87;14.33;;;;;;;1.83;83.62;98739.41;5062097;28;20587;-72
2020/12/30 09:17:42;;;;;;;28.17;15.63;;;;;;;1.92;83.90;98731.72;5064228;28;20422;-73
2020/12/30 09:20:09;;;;;;;23.60;14.17;;;;;;;1.95;83.30;98736.75;5061693;28;20468;-72
2020/12/30 09:22:35;;;;;;;23.40;13.50;;;;;;;1.98;83.35;98736.50;5063608;28;20445;-72
2020/12/30 09:25:02;;;;;;;22.23;13.47;;;;;;;1.98;83.05;98747.91;5063393;28;20476;-74
2020/12/30 09:27:33;;;;;;;17.33;12.53;;;;;;;2.11;82.51;98749.53;5061925;28;20476;-71
2020/12/30 09:30:11;;;;;;;20.67;14.20;;;;;;;2.17;82.57;98754.31;5062153;28;20464;-73
2020/12/30 09:32:37;;;;;;;19.90;13.00;;;;;;;2.32;82.54;98750.44;5062020;28;20984;-71
2020/12/30 09:35:04;;;;;;;20.90;14.03;;;;;;;2.36;81.44;98756.28;5062186;28;20452;-72
2020/12/30 09:37:30;;;;;;;21.33;14.03;;;;;;;2.46;81.45;98759.84;5061874;28;20453;-72
2020/12/30 09:40:18;;;;;;;22.60;15.43;;;;;;;2.28;82.34;98754.28;5063440;28;20455;-73
2020/12/30 09:42:46;;;;;;;24.33;14.80;;;;;;;2.04;84.64;98760.56;5057601;28;20473;-72
2020/12/30 09:45:13;;;;;;;28.87;15.97;;;;;;;1.93;84.97;98750.06;5061951;28;20460;-72
2020/12/30 09:47:40;;;;;;;22.17;15.00;;;;;;;1.99;84.96;98751.38;5063177;28;21036;-73
2020/12/30 09:50:08;;;;;;;21.17;14.67;;;;;;;2.05;85.07;98750.88;5060457;28;20524;-73
2020/12/30 09:52:35;;;;;;;21.80;13.50;;;;;;;2.08;85.38;98758.53;5065432;28;20460;-73
2020/12/30 09:55:01;;;;;;;23.33;14.40;;;;;;;2.05;84.71;98756.97;5060143;28;20519;-71
2020/12/30 09:57:27;;;;;;;23.50;15.27;;;;;;;2.08;84.84;98753.25;5056890;28;20681;-72
2020/12/30 09:59:54;;;;;;;22.97;16.40;;;;;;;2.17;84.85;98751.66;5059711;28;20504;-73
2020/12/30 10:02:21;;;;;;;22.87;16.27;;;;;;;2.13;84.44;98756.34;5061711;28;20472;-73
2020/12/30 10:04:47;;;;;;;19.53;14.03;;;;;;;2.14;85.03;98762.50;5059037;28;20531;-72
2020/12/30 10:07:13;;;;;;;23.17;16.43;;;;;;;2.22;84.36;98765.31;5058434;28;20510;-72
2020/12/30 10:09:40;;;;;;;21.20;15.27;;;;;;;2.17;84.48;98770.97;5061339;28;20947;-72
2020/12/30 10:12:06;;;;;;;24.10;15.73;;;;;;;2.28;84.38;98764.00;5061064;28;20839;-72
2020/12/30 10:14:32;;;;;;;22.03;15.00;;;;;;;2.41;84.03;98757.59;5059614;28;20476;-73
2020/12/30 10:16:58;;;;;;;21.57;16.07;;;;;;;2.56;83.40;98758.13;5060943;28;20918;-73
2020/12/30 10:19:25;;;;;;;25.57;15.30;;;;;;;2.68;82.82;98766.84;5061200;28;20475;-73
2020/12/30 10:21:51;;;;;;;22.90;14.37;;;;;;;2.70;82.78;98761.44;5060527;28;20476;-74
2020/12/30 10:24:17;;;;;;;21.67;14.50;;;;;;;2.71;82.18;98761.31;5061445;28;20506;-73
2020/12/30 10:26:43;;;;;;;22.60;15.60;;;;;;;2.73;82.45;98761.19;5055318;28;20541;-73
2020/12/30 10:29:11;;;;;;;20.53;14.67;;;;;;;2.73;82.76;98767.28;5056470;28;20681;-72
2020/12/30 10:31:37;;;;;;;19.93;14.90;;;;;;;2.72;82.37;98770.06;5059757;28;20504;-73
2020/12/30 10:34:03;;;;;;;21.93;14.50;;;;;;;2.70;83.03;98764.91;5061699;28;21043;-72
2020/12/30 10:36:32;;;;;;;26.87;15.70;;;;;;;2.77;82.76;98767.88;5058928;28;20710;-74
2020/12/30 10:39:00;;;;;;;20.07;15.00;;;;;;;2.78;82.67;98762.47;5061721;28;20451;-74
2020/12/30 10:41:26;;;;;;;21.43;14.90;;;;;;;2.86;83.16;98768.91;5055676;28;20460;-73
2020/12/30 10:43:53;;;;;;;23.30;15.40;;;;;;;2.85;82.91;98778.66;5060397;28;20465;-73
2020/12/30 10:46:19;;;;;;;22.83;14.27;;;;;;;2.76;82.60;98772.31;5058676;28;20480;-72
2020/12/30 10:48:46;;;;;;;24.40;16.20;;;;;;;2.70;82.93;98777.28;5060900;28;20481;-73
2020/12/30 10:51:13;;;;;;;24.40;15.90;;;;;;;2.60;83.21;98777.19;5058031;28;20485;-71
2020/12/30 10:53:40;;;;;;;28.23;15.73;;;;;;;2.80;83.27;98771.09;5057404;28;20449;-66
2020/12/30 10:56:08;;;;;;;23.57;15.67;;;;;;;2.92;82.95;98785.09;5058593;28;20496;-66
2020/12/30 10:58:34;;;;;;;23.33;15.17;;;;;;;2.98;82.30;98773.16;5060278;28;20449;-65
2020/12/30 11:01:00;;;;;;;22.63;15.33;;;;;;;3.17;81.90;98777.72;5059258;28;20704;-66
2020/12/30 11:03:26;;;;;;;24.00;16.10;;;;;;;3.08;82.33;98773.25;5060622;28;20425;-65
2020/12/30 11:05:58;;;;;;;22.33;15.20;;;;;;;3.03;82.21;98772.78;5056802;28;20493;-65
2020/12/30 11:08:24;;;;;;;19.30;14.43;;;;;;;3.06;82.27;98778.66;5060185;28;20522;-66
2020/12/30 11:10:51;;;;;;;21.57;14.37;;;;;;;3.16;81.96;98776.91;5056604;28;20477;-66
2020/12/30 11:13:17;;;;;;;25.13;15.70;;;;;;;3.36;81.50;98771.72;5057606;28;20453;-65
2020/12/30 11:15:43;;;;;;;21.27;15.33;;;;;;;3.26;81.51;98769.03;5059629;28;20469;-65
2020/12/30 11:18:10;;;;;;;27.90;15.57;;;;;;;3.09;82.19;98780.19;5060872;28;20442;-67
2020/12/30 11:20:36;;;;;;;19.97;15.10;;;;;;;3.21;82.46;98773.84;5057314;28;20559;-66
2020/12/30 11:23:02;;;;;;;24.43;16.50;;;;;;;3.39;81.97;98779.41;5059184;28;20456;-66
2020/12/30 11:25:28;;;;;;;28.97;16.10;;;;;;;3.24;81.77;98778.88;5054976;28;20538;-65
2020/12/30 11:27:55;;;;;;;23.33;14.77;;;;;;;3.01;82.38;98783.47;5058606;28;20552;-66
2020/12/30 11:30:22;;;;;;;23.00;15.33;;;;;;;2.83;84.07;98776.13;5059038;28;20476;-67
2020/12/30 11:32:48;;;;;;;23.50;15.70;;;;;;;2.91;85.14;98772.00;5060455;28;20460;-67
2020/12/30 11:35:14;;;;;;;20.20;14.67;;;;;;;2.80;85.46;98780.81;5057687;28;20469;-67
2020/12/30 11:37:41;;;;;;;23.10;15.07;;;;;;;2.88;85.36;98780.19;5060769;28;20437;-67
2020/12/30 11:40:07;;;;;;;23.20;16.80;;;;;;;2.93;85.52;98772.72;5058937;28;20449;-67